sensor_id;sensor_type;location;lat;lon;timestamp;P1;durP1;ratioP1;P2;durP2;ratioP2
75732;SDS011;73508;47.450;19.128;2024-03-08T00:02:23;23.27;;;11.10;;
75732;SDS011;73508;47.450;19.128;2024-03-08T00:04:48;21.63;;;11.30;;
75732;SDS011;73508;47.450;19.128;2024-03-08T00:07:13;21.87;;;10.87;;
75732;SDS011;73508;47.450;19.128;2024-03-08T00:09:39;25.03;;;10.67;;
75732;SDS011;73508;47.450;19.128;2024-03-08T00:12:04;23.47;;;10.37;;
75732;SDS011;73508;47.450;19.128;2024-03-08T00:14:31;22.63;;;10.93;;
75732;SDS011;73508;47.450;19.128;2024-03-08T00:16:56;23.50;;;11.37;;
75732;SDS011;73508;47.450;19.128;2024-03-08T00:19:21;20.75;;;10.93;;
75732;SDS011;73508;47.450;19.128;2024-03-08T00:21:47;23.30;;;11.03;;
75732;SDS011;73508;47.450;19.128;2024-03-08T00:24:12;22.67;;;11.57;;
75732;SDS011;73508;47.450;19.128;2024-03-08T00:26:37;21.43;;;10.63;;
75732;SDS011;73508;47.450;19.128;2024-03-08T00:29:03;23.40;;;10.83;;
75732;SDS011;73508;47.450;19.128;2024-03-08T00:31:28;23.27;;;10.80;;
75732;SDS011;73508;47.450;19.128;2024-03-08T00:33:55;21.55;;;10.18;;
75732;SDS011;73508;47.450;19.128;2024-03-08T00:36:21;20.17;;;10.68;;
75732;SDS011;73508;47.450;19.128;2024-03-08T00:38:47;22.60;;;10.70;;
75732;SDS011;73508;47.450;19.128;2024-03-08T00:41:12;22.83;;;10.73;;
75732;SDS011;73508;47.450;19.128;2024-03-08T00:43:38;22.98;;;11.52;;
75732;SDS011;73508;47.450;19.128;2024-03-08T00:46:03;21.77;;;10.93;;
75732;SDS011;73508;47.450;19.128;2024-03-08T00:48:28;21.63;;;10.60;;
75732;SDS011;73508;47.450;19.128;2024-03-08T00:50:54;23.40;;;11.83;;
75732;SDS011;73508;47.450;19.128;2024-03-08T00:53:19;24.63;;;11.77;;
75732;SDS011;73508;47.450;19.128;2024-03-08T00:55:44;24.00;;;11.43;;
75732;SDS011;73508;47.450;19.128;2024-03-08T00:58:11;22.48;;;11.85;;
75732;SDS011;73508;47.450;19.128;2024-03-08T01:00:37;24.50;;;11.73;;
75732;SDS011;73508;47.450;19.128;2024-03-08T01:03:03;24.60;;;11.77;;
75732;SDS011;73508;47.450;19.128;2024-03-08T01:05:29;25.08;;;12.50;;
75732;SDS011;73508;47.450;19.128;2024-03-08T01:07:55;24.13;;;12.23;;
75732;SDS011;73508;47.450;19.128;2024-03-08T01:10:20;25.52;;;11.82;;
75732;SDS011;73508;47.450;19.128;2024-03-08T01:12:45;25.80;;;11.73;;
75732;SDS011;73508;47.450;19.128;2024-03-08T01:15:11;26.23;;;13.13;;
75732;SDS011;73508;47.450;19.128;2024-03-08T01:17:36;28.43;;;13.07;;
75732;SDS011;73508;47.450;19.128;2024-03-08T01:20:02;27.33;;;12.37;;
75732;SDS011;73508;47.450;19.128;2024-03-08T01:22:28;24.83;;;12.32;;
75732;SDS011;73508;47.450;19.128;2024-03-08T01:24:54;29.12;;;13.13;;
75732;SDS011;73508;47.450;19.128;2024-03-08T01:27:20;27.35;;;12.70;;
75732;SDS011;73508;47.450;19.128;2024-03-08T01:29:46;27.10;;;13.40;;
75732;SDS011;73508;47.450;19.128;2024-03-08T01:32:11;31.07;;;13.87;;
75732;SDS011;73508;47.450;19.128;2024-03-08T01:34:37;28.83;;;12.87;;
75732;SDS011;73508;47.450;19.128;2024-03-08T01:37:02;29.50;;;13.47;;
75732;SDS011;73508;47.450;19.128;2024-03-08T01:39:27;35.23;;;15.90;;
75732;SDS011;73508;47.450;19.128;2024-03-08T01:41:53;35.83;;;15.70;;
75732;SDS011;73508;47.450;19.128;2024-03-08T01:44:19;37.28;;;15.43;;
75732;SDS011;73508;47.450;19.128;2024-03-08T01:46:44;35.47;;;15.20;;
75732;SDS011;73508;47.450;19.128;2024-03-08T01:49:10;34.08;;;15.23;;
75732;SDS011;73508;47.450;19.128;2024-03-08T01:51:36;34.10;;;15.07;;
75732;SDS011;73508;47.450;19.128;2024-03-08T01:54:02;36.47;;;17.25;;
75732;SDS011;73508;47.450;19.128;2024-03-08T01:56:28;32.10;;;15.57;;
75732;SDS011;73508;47.450;19.128;2024-03-08T01:58:54;35.47;;;16.12;;
75732;SDS011;73508;47.450;19.128;2024-03-08T02:04:41;35.15;;;15.15;;
75732;SDS011;73508;47.450;19.128;2024-03-08T02:07:06;38.70;;;17.00;;
75732;SDS011;73508;47.450;19.128;2024-03-08T02:09:32;36.47;;;16.57;;
75732;SDS011;73508;47.450;19.128;2024-03-08T02:11:57;39.13;;;17.35;;
75732;SDS011;73508;47.450;19.128;2024-03-08T02:14:23;38.00;;;16.80;;
75732;SDS011;73508;47.450;19.128;2024-03-08T02:16:48;42.23;;;16.77;;
75732;SDS011;73508;47.450;19.128;2024-03-08T02:19:14;35.80;;;16.77;;
75732;SDS011;73508;47.450;19.128;2024-03-08T02:21:39;38.53;;;17.10;;
75732;SDS011;73508;47.450;19.128;2024-03-08T02:24:04;37.97;;;16.97;;
75732;SDS011;73508;47.450;19.128;2024-03-08T02:26:30;40.73;;;16.73;;
75732;SDS011;73508;47.450;19.128;2024-03-08T02:28:56;39.80;;;17.25;;
75732;SDS011;73508;47.450;19.128;2024-03-08T02:31:21;41.23;;;16.47;;
75732;SDS011;73508;47.450;19.128;2024-03-08T02:33:46;40.37;;;17.30;;
75732;SDS011;73508;47.450;19.128;2024-03-08T02:36:12;41.83;;;17.83;;
75732;SDS011;73508;47.450;19.128;2024-03-08T02:38:38;32.28;;;15.70;;
75732;SDS011;73508;47.450;19.128;2024-03-08T02:41:05;37.13;;;16.37;;
75732;SDS011;73508;47.450;19.128;2024-03-08T02:43:31;37.13;;;16.73;;
75732;SDS011;73508;47.450;19.128;2024-03-08T02:45:56;39.10;;;16.17;;
75732;SDS011;73508;47.450;19.128;2024-03-08T02:48:21;40.57;;;17.03;;
75732;SDS011;73508;47.450;19.128;2024-03-08T02:50:47;39.97;;;16.65;;
75732;SDS011;73508;47.450;19.128;2024-03-08T02:53:13;43.33;;;17.03;;
75732;SDS011;73508;47.450;19.128;2024-03-08T02:55:38;38.43;;;16.43;;
75732;SDS011;73508;47.450;19.128;2024-03-08T02:58:04;41.53;;;16.95;;
75732;SDS011;73508;47.450;19.128;2024-03-08T03:00:29;38.40;;;17.03;;
75732;SDS011;73508;47.450;19.128;2024-03-08T03:02:59;37.58;;;15.85;;
75732;SDS011;73508;47.450;19.128;2024-03-08T03:05:24;40.30;;;17.63;;
75732;SDS011;73508;47.450;19.128;2024-03-08T03:07:50;37.88;;;16.52;;
75732;SDS011;73508;47.450;19.128;2024-03-08T03:10:18;37.93;;;15.70;;
75732;SDS011;73508;47.450;19.128;2024-03-08T03:12:44;45.72;;;17.55;;
75732;SDS011;73508;47.450;19.128;2024-03-08T03:15:11;41.55;;;17.40;;
75732;SDS011;73508;47.450;19.128;2024-03-08T03:17:37;44.35;;;18.05;;
75732;SDS011;73508;47.450;19.128;2024-03-08T03:20:04;37.37;;;16.53;;
75732;SDS011;73508;47.450;19.128;2024-03-08T03:22:35;44.03;;;17.65;;
75732;SDS011;73508;47.450;19.128;2024-03-08T03:25:02;38.75;;;17.50;;
75732;SDS011;73508;47.450;19.128;2024-03-08T03:27:29;43.40;;;17.93;;
75732;SDS011;73508;47.450;19.128;2024-03-08T03:29:55;42.95;;;17.62;;
75732;SDS011;73508;47.450;19.128;2024-03-08T03:32:22;41.30;;;17.33;;
75732;SDS011;73508;47.450;19.128;2024-03-08T03:34:48;36.72;;;16.00;;
75732;SDS011;73508;47.450;19.128;2024-03-08T03:37:13;45.33;;;17.60;;
75732;SDS011;73508;47.450;19.128;2024-03-08T03:39:39;43.37;;;18.20;;
75732;SDS011;73508;47.450;19.128;2024-03-08T03:42:17;39.72;;;17.75;;
75732;SDS011;73508;47.450;19.128;2024-03-08T03:44:48;41.17;;;17.58;;
75732;SDS011;73508;47.450;19.128;2024-03-08T03:47:14;42.00;;;18.17;;
75732;SDS011;73508;47.450;19.128;2024-03-08T03:49:43;39.85;;;17.87;;
75732;SDS011;73508;47.450;19.128;2024-03-08T03:52:08;44.10;;;18.35;;
75732;SDS011;73508;47.450;19.128;2024-03-08T03:54:35;43.78;;;17.52;;
75732;SDS011;73508;47.450;19.128;2024-03-08T03:57:00;39.93;;;16.40;;
75732;SDS011;73508;47.450;19.128;2024-03-08T03:59:26;38.07;;;16.43;;
75732;SDS011;73508;47.450;19.128;2024-03-08T04:01:55;45.17;;;17.35;;
75732;SDS011;73508;47.450;19.128;2024-03-08T04:04:20;49.73;;;18.20;;
75732;SDS011;73508;47.450;19.128;2024-03-08T04:06:46;40.12;;;17.55;;
75732;SDS011;73508;47.450;19.128;2024-03-08T04:09:12;42.33;;;17.55;;
75732;SDS011;73508;47.450;19.128;2024-03-08T04:11:38;40.07;;;17.43;;
75732;SDS011;73508;47.450;19.128;2024-03-08T04:14:04;41.67;;;17.85;;
75732;SDS011;73508;47.450;19.128;2024-03-08T04:16:30;44.47;;;20.02;;
75732;SDS011;73508;47.450;19.128;2024-03-08T04:18:56;42.20;;;17.87;;
75732;SDS011;73508;47.450;19.128;2024-03-08T04:21:22;44.03;;;17.30;;
75732;SDS011;73508;47.450;19.128;2024-03-08T04:23:47;41.40;;;16.53;;
75732;SDS011;73508;47.450;19.128;2024-03-08T04:26:13;38.83;;;16.43;;
75732;SDS011;73508;47.450;19.128;2024-03-08T04:28:38;39.50;;;16.47;;
75732;SDS011;73508;47.450;19.128;2024-03-08T04:31:04;37.92;;;16.48;;
75732;SDS011;73508;47.450;19.128;2024-03-08T04:33:30;40.17;;;17.03;;
75732;SDS011;73508;47.450;19.128;2024-03-08T04:35:55;40.58;;;17.23;;
75732;SDS011;73508;47.450;19.128;2024-03-08T04:38:21;42.87;;;17.10;;
75732;SDS011;73508;47.450;19.128;2024-03-08T04:40:47;42.20;;;18.23;;
75732;SDS011;73508;47.450;19.128;2024-03-08T04:43:12;41.90;;;18.70;;
75732;SDS011;73508;47.450;19.128;2024-03-08T04:45:39;43.78;;;18.92;;
75732;SDS011;73508;47.450;19.128;2024-03-08T04:48:04;42.60;;;18.07;;
75732;SDS011;73508;47.450;19.128;2024-03-08T04:50:30;42.80;;;18.02;;
75732;SDS011;73508;47.450;19.128;2024-03-08T04:52:55;43.37;;;16.63;;
75732;SDS011;73508;47.450;19.128;2024-03-08T04:55:21;46.27;;;17.90;;
75732;SDS011;73508;47.450;19.128;2024-03-08T04:57:46;48.77;;;18.17;;
75732;SDS011;73508;47.450;19.128;2024-03-08T05:00:12;45.00;;;17.83;;
75732;SDS011;73508;47.450;19.128;2024-03-08T05:02:39;42.55;;;17.35;;
75732;SDS011;73508;47.450;19.128;2024-03-08T05:05:06;41.08;;;17.25;;
75732;SDS011;73508;47.450;19.128;2024-03-08T05:07:32;42.47;;;17.27;;
75732;SDS011;73508;47.450;19.128;2024-03-08T05:10:00;42.92;;;18.00;;
75732;SDS011;73508;47.450;19.128;2024-03-08T05:12:27;43.13;;;16.90;;
75732;SDS011;73508;47.450;19.128;2024-03-08T05:14:52;42.20;;;17.83;;
75732;SDS011;73508;47.450;19.128;2024-03-08T05:17:18;39.40;;;17.62;;
75732;SDS011;73508;47.450;19.128;2024-03-08T05:19:44;37.33;;;17.17;;
75732;SDS011;73508;47.450;19.128;2024-03-08T05:22:09;40.83;;;18.03;;
75732;SDS011;73508;47.450;19.128;2024-03-08T05:24:34;42.57;;;17.20;;
75732;SDS011;73508;47.450;19.128;2024-03-08T05:27:00;41.57;;;17.60;;
75732;SDS011;73508;47.450;19.128;2024-03-08T05:29:26;40.10;;;16.23;;
75732;SDS011;73508;47.450;19.128;2024-03-08T05:31:51;40.55;;;17.80;;
75732;SDS011;73508;47.450;19.128;2024-03-08T05:34:20;36.92;;;16.95;;
75732;SDS011;73508;47.450;19.128;2024-03-08T05:36:46;41.67;;;17.43;;
75732;SDS011;73508;47.450;19.128;2024-03-08T05:39:14;44.08;;;18.00;;
75732;SDS011;73508;47.450;19.128;2024-03-08T05:41:40;41.65;;;16.98;;
75732;SDS011;73508;47.450;19.128;2024-03-08T05:44:06;37.00;;;16.12;;
75732;SDS011;73508;47.450;19.128;2024-03-08T05:46:31;45.10;;;18.40;;
75732;SDS011;73508;47.450;19.128;2024-03-08T05:48:57;43.37;;;17.87;;
75732;SDS011;73508;47.450;19.128;2024-03-08T05:51:24;39.58;;;16.45;;
75732;SDS011;73508;47.450;19.128;2024-03-08T05:53:51;40.50;;;17.25;;
75732;SDS011;73508;47.450;19.128;2024-03-08T05:56:18;35.63;;;16.17;;
75732;SDS011;73508;47.450;19.128;2024-03-08T05:58:43;46.03;;;18.63;;
75732;SDS011;73508;47.450;19.128;2024-03-08T06:01:09;40.13;;;17.03;;
75732;SDS011;73508;47.450;19.128;2024-03-08T06:03:37;40.45;;;17.50;;
75732;SDS011;73508;47.450;19.128;2024-03-08T06:06:09;47.58;;;20.17;;
75732;SDS011;73508;47.450;19.128;2024-03-08T06:08:34;46.57;;;20.50;;
75732;SDS011;73508;47.450;19.128;2024-03-08T06:10:59;40.50;;;16.47;;
75732;SDS011;73508;47.450;19.128;2024-03-08T06:13:27;43.55;;;18.08;;
75732;SDS011;73508;47.450;19.128;2024-03-08T06:15:52;44.33;;;17.60;;
75732;SDS011;73508;47.450;19.128;2024-03-08T06:18:18;41.13;;;18.83;;
75732;SDS011;73508;47.450;19.128;2024-03-08T06:20:43;40.07;;;17.70;;
75732;SDS011;73508;47.450;19.128;2024-03-08T06:23:09;41.50;;;17.83;;
75732;SDS011;73508;47.450;19.128;2024-03-08T06:25:34;41.60;;;18.43;;
75732;SDS011;73508;47.450;19.128;2024-03-08T06:28:00;36.93;;;16.90;;
75732;SDS011;73508;47.450;19.128;2024-03-08T06:30:25;38.27;;;16.83;;
75732;SDS011;73508;47.450;19.128;2024-03-08T06:32:50;39.97;;;17.33;;
75732;SDS011;73508;47.450;19.128;2024-03-08T06:35:16;41.27;;;16.93;;
75732;SDS011;73508;47.450;19.128;2024-03-08T06:37:41;40.53;;;17.17;;
75732;SDS011;73508;47.450;19.128;2024-03-08T06:40:09;38.80;;;17.77;;
75732;SDS011;73508;47.450;19.128;2024-03-08T06:42:38;38.97;;;16.50;;
75732;SDS011;73508;47.450;19.128;2024-03-08T06:45:04;39.90;;;17.25;;
75732;SDS011;73508;47.450;19.128;2024-03-08T06:47:30;43.33;;;17.90;;
75732;SDS011;73508;47.450;19.128;2024-03-08T06:49:56;41.58;;;17.75;;
75732;SDS011;73508;47.450;19.128;2024-03-08T06:52:22;42.80;;;18.90;;
75732;SDS011;73508;47.450;19.128;2024-03-08T06:54:47;42.53;;;17.50;;
75732;SDS011;73508;47.450;19.128;2024-03-08T06:57:13;43.20;;;17.53;;
75732;SDS011;73508;47.450;19.128;2024-03-08T06:59:39;40.88;;;17.87;;
75732;SDS011;73508;47.450;19.128;2024-03-08T07:02:04;47.07;;;18.03;;
75732;SDS011;73508;47.450;19.128;2024-03-08T07:04:29;40.00;;;17.23;;
75732;SDS011;73508;47.450;19.128;2024-03-08T07:06:56;40.28;;;17.10;;
75732;SDS011;73508;47.450;19.128;2024-03-08T07:09:22;40.90;;;16.85;;
75732;SDS011;73508;47.450;19.128;2024-03-08T07:11:49;45.65;;;18.12;;
75732;SDS011;73508;47.450;19.128;2024-03-08T07:14:19;42.73;;;16.73;;
75732;SDS011;73508;47.450;19.128;2024-03-08T07:16:48;47.03;;;18.05;;
75732;SDS011;73508;47.450;19.128;2024-03-08T07:19:14;45.58;;;18.05;;
75732;SDS011;73508;47.450;19.128;2024-03-08T07:21:40;42.88;;;17.87;;
75732;SDS011;73508;47.450;19.128;2024-03-08T07:24:07;45.08;;;18.27;;
75732;SDS011;73508;47.450;19.128;2024-03-08T07:26:52;44.70;;;17.43;;
75732;SDS011;73508;47.450;19.128;2024-03-08T07:29:18;47.45;;;18.80;;
75732;SDS011;73508;47.450;19.128;2024-03-08T07:31:43;47.83;;;17.80;;
75732;SDS011;73508;47.450;19.128;2024-03-08T07:34:44;44.75;;;17.92;;
75732;SDS011;73508;47.450;19.128;2024-03-08T07:37:09;45.97;;;17.83;;
75732;SDS011;73508;47.450;19.128;2024-03-08T07:39:36;45.25;;;17.65;;
75732;SDS011;73508;47.450;19.128;2024-03-08T07:42:02;39.88;;;18.00;;
75732;SDS011;73508;47.450;19.128;2024-03-08T07:44:28;47.57;;;18.53;;
75732;SDS011;73508;47.450;19.128;2024-03-08T07:46:54;49.17;;;20.95;;
75732;SDS011;73508;47.450;19.128;2024-03-08T07:49:20;47.07;;;19.57;;
75732;SDS011;73508;47.450;19.128;2024-03-08T07:51:45;44.57;;;18.13;;
75732;SDS011;73508;47.450;19.128;2024-03-08T07:54:10;43.00;;;18.47;;
75732;SDS011;73508;47.450;19.128;2024-03-08T07:56:36;47.43;;;18.37;;
75732;SDS011;73508;47.450;19.128;2024-03-08T07:59:01;41.97;;;16.13;;
75732;SDS011;73508;47.450;19.128;2024-03-08T08:01:29;45.63;;;18.15;;
75732;SDS011;73508;47.450;19.128;2024-03-08T08:03:55;50.15;;;20.60;;
75732;SDS011;73508;47.450;19.128;2024-03-08T08:06:21;48.65;;;18.87;;
75732;SDS011;73508;47.450;19.128;2024-03-08T08:08:46;48.77;;;17.43;;
75732;SDS011;73508;47.450;19.128;2024-03-08T08:11:12;48.40;;;18.77;;
75732;SDS011;73508;47.450;19.128;2024-03-08T08:13:37;48.63;;;19.67;;
75732;SDS011;73508;47.450;19.128;2024-03-08T08:16:04;46.10;;;19.30;;
75732;SDS011;73508;47.450;19.128;2024-03-08T08:18:31;41.55;;;16.40;;
75732;SDS011;73508;47.450;19.128;2024-03-08T08:20:58;44.45;;;18.42;;
75732;SDS011;73508;47.450;19.128;2024-03-08T08:23:25;46.40;;;20.17;;
75732;SDS011;73508;47.450;19.128;2024-03-08T08:25:50;48.25;;;19.62;;
75732;SDS011;73508;47.450;19.128;2024-03-08T08:28:16;50.77;;;19.17;;
75732;SDS011;73508;47.450;19.128;2024-03-08T08:30:42;45.90;;;18.23;;
75732;SDS011;73508;47.450;19.128;2024-03-08T08:33:08;49.53;;;19.37;;
75732;SDS011;73508;47.450;19.128;2024-03-08T08:35:33;45.60;;;18.53;;
75732;SDS011;73508;47.450;19.128;2024-03-08T08:37:59;51.67;;;18.75;;
75732;SDS011;73508;47.450;19.128;2024-03-08T08:40:24;49.33;;;18.80;;
75732;SDS011;73508;47.450;19.128;2024-03-08T08:42:50;49.50;;;19.55;;
75732;SDS011;73508;47.450;19.128;2024-03-08T08:45:18;54.77;;;23.20;;
75732;SDS011;73508;47.450;19.128;2024-03-08T08:47:44;52.83;;;20.58;;
75732;SDS011;73508;47.450;19.128;2024-03-08T08:50:10;50.08;;;19.65;;
75732;SDS011;73508;47.450;19.128;2024-03-08T08:52:39;52.97;;;20.30;;
75732;SDS011;73508;47.450;19.128;2024-03-08T08:55:04;51.60;;;20.95;;
75732;SDS011;73508;47.450;19.128;2024-03-08T08:57:31;47.43;;;19.43;;
75732;SDS011;73508;47.450;19.128;2024-03-08T08:59:58;46.42;;;19.02;;
75732;SDS011;73508;47.450;19.128;2024-03-08T09:02:23;55.77;;;20.77;;
75732;SDS011;73508;47.450;19.128;2024-03-08T09:04:50;53.35;;;19.17;;
75732;SDS011;73508;47.450;19.128;2024-03-08T09:07:16;51.47;;;17.75;;
75732;SDS011;73508;47.450;19.128;2024-03-08T09:09:43;42.57;;;18.60;;
75732;SDS011;73508;47.450;19.128;2024-03-08T09:12:09;44.97;;;18.75;;
75732;SDS011;73508;47.450;19.128;2024-03-08T09:14:38;42.13;;;18.58;;
75732;SDS011;73508;47.450;19.128;2024-03-08T09:17:05;46.15;;;19.30;;
75732;SDS011;73508;47.450;19.128;2024-03-08T09:19:31;48.43;;;19.37;;
75732;SDS011;73508;47.450;19.128;2024-03-08T09:21:57;50.63;;;18.98;;
75732;SDS011;73508;47.450;19.128;2024-03-08T09:24:22;48.20;;;19.50;;
75732;SDS011;73508;47.450;19.128;2024-03-08T09:26:48;42.50;;;18.30;;
75732;SDS011;73508;47.450;19.128;2024-03-08T09:29:13;45.50;;;18.53;;
75732;SDS011;73508;47.450;19.128;2024-03-08T09:31:39;40.80;;;18.02;;
75732;SDS011;73508;47.450;19.128;2024-03-08T09:34:05;46.83;;;18.37;;
75732;SDS011;73508;47.450;19.128;2024-03-08T09:36:33;42.00;;;19.23;;
75732;SDS011;73508;47.450;19.128;2024-03-08T09:38:58;43.53;;;17.50;;
75732;SDS011;73508;47.450;19.128;2024-03-08T09:41:24;42.47;;;18.17;;
75732;SDS011;73508;47.450;19.128;2024-03-08T09:43:50;45.03;;;18.23;;
75732;SDS011;73508;47.450;19.128;2024-03-08T09:46:15;46.07;;;20.50;;
75732;SDS011;73508;47.450;19.128;2024-03-08T09:48:41;45.17;;;19.77;;
75732;SDS011;73508;47.450;19.128;2024-03-08T09:51:06;48.67;;;21.97;;
75732;SDS011;73508;47.450;19.128;2024-03-08T09:53:32;44.73;;;19.07;;
75732;SDS011;73508;47.450;19.128;2024-03-08T09:55:58;45.20;;;18.87;;
75732;SDS011;73508;47.450;19.128;2024-03-08T09:58:24;48.22;;;19.10;;
75732;SDS011;73508;47.450;19.128;2024-03-08T10:00:52;43.80;;;17.63;;
75732;SDS011;73508;47.450;19.128;2024-03-08T10:03:19;42.55;;;18.55;;
75732;SDS011;73508;47.450;19.128;2024-03-08T10:05:45;40.77;;;17.33;;
75732;SDS011;73508;47.450;19.128;2024-03-08T10:08:11;47.38;;;18.85;;
75732;SDS011;73508;47.450;19.128;2024-03-08T10:10:37;55.45;;;24.58;;
75732;SDS011;73508;47.450;19.128;2024-03-08T10:13:08;45.20;;;20.77;;
75732;SDS011;73508;47.450;19.128;2024-03-08T10:15:34;36.15;;;18.85;;
75732;SDS011;73508;47.450;19.128;2024-03-08T10:18:00;35.13;;;17.02;;
75732;SDS011;73508;47.450;19.128;2024-03-08T10:20:27;39.13;;;16.73;;
75732;SDS011;73508;47.450;19.128;2024-03-08T10:22:53;44.17;;;17.67;;
75732;SDS011;73508;47.450;19.128;2024-03-08T10:25:19;42.57;;;17.27;;
75732;SDS011;73508;47.450;19.128;2024-03-08T10:27:44;41.30;;;16.97;;
75732;SDS011;73508;47.450;19.128;2024-03-08T10:30:10;41.60;;;17.83;;
75732;SDS011;73508;47.450;19.128;2024-03-08T10:32:39;37.37;;;16.77;;
75732;SDS011;73508;47.450;19.128;2024-03-08T10:35:06;42.42;;;16.83;;
75732;SDS011;73508;47.450;19.128;2024-03-08T10:37:37;42.38;;;17.90;;
75732;SDS011;73508;47.450;19.128;2024-03-08T10:40:04;40.47;;;18.12;;
75732;SDS011;73508;47.450;19.128;2024-03-08T10:42:40;47.85;;;20.20;;
75732;SDS011;73508;47.450;19.128;2024-03-08T10:45:15;46.13;;;18.17;;
75732;SDS011;73508;47.450;19.128;2024-03-08T10:47:48;41.53;;;19.17;;
75732;SDS011;73508;47.450;19.128;2024-03-08T10:50:18;45.90;;;18.75;;
75732;SDS011;73508;47.450;19.128;2024-03-08T10:52:50;43.45;;;17.95;;
75732;SDS011;73508;47.450;19.128;2024-03-08T10:55:17;46.22;;;18.17;;
75732;SDS011;73508;47.450;19.128;2024-03-08T10:57:45;45.17;;;20.03;;
75732;SDS011;73508;47.450;19.128;2024-03-08T11:00:11;43.35;;;19.62;;
75732;SDS011;73508;47.450;19.128;2024-03-08T11:02:37;41.88;;;18.27;;
75732;SDS011;73508;47.450;19.128;2024-03-08T11:05:03;43.90;;;18.03;;
75732;SDS011;73508;47.450;19.128;2024-03-08T11:07:30;38.85;;;17.52;;
75732;SDS011;73508;47.450;19.128;2024-03-08T11:09:59;42.55;;;17.90;;
75732;SDS011;73508;47.450;19.128;2024-03-08T11:12:29;41.23;;;18.33;;
75732;SDS011;73508;47.450;19.128;2024-03-08T11:15:02;40.67;;;18.58;;
75732;SDS011;73508;47.450;19.128;2024-03-08T11:20:11;42.95;;;19.10;;
75732;SDS011;73508;47.450;19.128;2024-03-08T11:22:51;46.15;;;18.67;;
75732;SDS011;73508;47.450;19.128;2024-03-08T11:25:39;37.90;;;17.50;;
75732;SDS011;73508;47.450;19.128;2024-03-08T11:30:42;40.40;;;18.83;;
75732;SDS011;73508;47.450;19.128;2024-03-08T11:33:12;38.58;;;16.73;;
75732;SDS011;73508;47.450;19.128;2024-03-08T11:35:38;43.87;;;18.67;;
75732;SDS011;73508;47.450;19.128;2024-03-08T11:38:04;42.77;;;17.83;;
75732;SDS011;73508;47.450;19.128;2024-03-08T11:40:29;35.70;;;16.80;;
75732;SDS011;73508;47.450;19.128;2024-03-08T11:42:55;39.47;;;18.70;;
75732;SDS011;73508;47.450;19.128;2024-03-08T11:45:20;36.17;;;17.33;;
75732;SDS011;73508;47.450;19.128;2024-03-08T11:47:49;39.20;;;20.00;;
75732;SDS011;73508;47.450;19.128;2024-03-08T11:50:14;35.00;;;17.62;;
75732;SDS011;73508;47.450;19.128;2024-03-08T11:52:40;40.03;;;17.37;;
75732;SDS011;73508;47.450;19.128;2024-03-08T11:55:06;40.08;;;18.27;;
75732;SDS011;73508;47.450;19.128;2024-03-08T11:57:32;40.90;;;18.58;;
75732;SDS011;73508;47.450;19.128;2024-03-08T11:59:58;41.33;;;19.10;;
75732;SDS011;73508;47.450;19.128;2024-03-08T12:02:31;41.25;;;18.50;;
75732;SDS011;73508;47.450;19.128;2024-03-08T12:04:57;34.17;;;17.20;;
75732;SDS011;73508;47.450;19.128;2024-03-08T12:07:24;29.37;;;15.50;;
75732;SDS011;73508;47.450;19.128;2024-03-08T12:12:47;33.97;;;16.60;;
75732;SDS011;73508;47.450;19.128;2024-03-08T12:15:20;30.00;;;15.65;;
75732;SDS011;73508;47.450;19.128;2024-03-08T12:17:48;30.60;;;14.98;;
75732;SDS011;73508;47.450;19.128;2024-03-08T12:20:16;28.50;;;13.37;;
75732;SDS011;73508;47.450;19.128;2024-03-08T12:22:43;28.45;;;14.32;;
75732;SDS011;73508;47.450;19.128;2024-03-08T12:25:10;24.65;;;12.80;;
75732;SDS011;73508;47.450;19.128;2024-03-08T12:27:37;23.05;;;13.00;;
75732;SDS011;73508;47.450;19.128;2024-03-08T12:32:54;21.50;;;11.37;;
75732;SDS011;73508;47.450;19.128;2024-03-08T12:35:24;18.92;;;10.77;;
75732;SDS011;73508;47.450;19.128;2024-03-08T12:37:51;22.52;;;13.15;;
75732;SDS011;73508;47.450;19.128;2024-03-08T12:40:18;22.05;;;12.63;;
75732;SDS011;73508;47.450;19.128;2024-03-08T12:42:44;23.52;;;11.65;;
75732;SDS011;73508;47.450;19.128;2024-03-08T12:45:12;23.50;;;12.17;;
75732;SDS011;73508;47.450;19.128;2024-03-08T12:47:38;20.20;;;11.90;;
75732;SDS011;73508;47.450;19.128;2024-03-08T12:50:05;22.00;;;11.38;;
75732;SDS011;73508;47.450;19.128;2024-03-08T12:52:33;22.55;;;11.88;;
75732;SDS011;73508;47.450;19.128;2024-03-08T12:54:59;19.23;;;11.27;;
75732;SDS011;73508;47.450;19.128;2024-03-08T12:57:28;21.58;;;10.38;;
75732;SDS011;73508;47.450;19.128;2024-03-08T12:59:54;17.67;;;10.10;;
75732;SDS011;73508;47.450;19.128;2024-03-08T13:02:19;16.62;;;9.07;;
75732;SDS011;73508;47.450;19.128;2024-03-08T13:04:45;18.03;;;9.10;;
75732;SDS011;73508;47.450;19.128;2024-03-08T13:07:12;17.83;;;9.40;;
75732;SDS011;73508;47.450;19.128;2024-03-08T13:09:41;18.52;;;10.23;;
75732;SDS011;73508;47.450;19.128;2024-03-08T13:12:07;16.87;;;9.40;;
75732;SDS011;73508;47.450;19.128;2024-03-08T13:14:33;23.27;;;11.83;;
75732;SDS011;73508;47.450;19.128;2024-03-08T13:17:00;23.02;;;11.93;;
75732;SDS011;73508;47.450;19.128;2024-03-08T13:19:25;27.20;;;14.27;;
75732;SDS011;73508;47.450;19.128;2024-03-08T13:21:53;35.63;;;13.80;;
75732;SDS011;73508;47.450;19.128;2024-03-08T13:24:18;27.02;;;12.70;;
75732;SDS011;73508;47.450;19.128;2024-03-08T13:26:43;26.60;;;13.70;;
75732;SDS011;73508;47.450;19.128;2024-03-08T13:29:10;29.77;;;13.48;;
75732;SDS011;73508;47.450;19.128;2024-03-08T13:31:35;28.53;;;13.83;;
75732;SDS011;73508;47.450;19.128;2024-03-08T13:34:01;30.63;;;14.93;;
75732;SDS011;73508;47.450;19.128;2024-03-08T13:36:26;29.77;;;14.23;;
75732;SDS011;73508;47.450;19.128;2024-03-08T13:39:00;31.17;;;14.07;;
75732;SDS011;73508;47.450;19.128;2024-03-08T13:41:25;30.35;;;14.05;;
75732;SDS011;73508;47.450;19.128;2024-03-08T13:43:51;26.93;;;13.13;;
75732;SDS011;73508;47.450;19.128;2024-03-08T13:46:17;27.43;;;14.67;;
75732;SDS011;73508;47.450;19.128;2024-03-08T13:48:42;38.28;;;15.77;;
75732;SDS011;73508;47.450;19.128;2024-03-08T13:51:08;32.03;;;15.20;;
75732;SDS011;73508;47.450;19.128;2024-03-08T13:53:36;30.70;;;16.37;;
75732;SDS011;73508;47.450;19.128;2024-03-08T13:56:01;28.53;;;14.73;;
75732;SDS011;73508;47.450;19.128;2024-03-08T13:58:27;32.15;;;15.10;;
75732;SDS011;73508;47.450;19.128;2024-03-08T14:00:53;29.00;;;14.40;;
75732;SDS011;73508;47.450;19.128;2024-03-08T14:03:18;30.83;;;14.37;;
75732;SDS011;73508;47.450;19.128;2024-03-08T14:05:44;33.42;;;16.50;;
75732;SDS011;73508;47.450;19.128;2024-03-08T14:08:10;33.77;;;15.40;;
75732;SDS011;73508;47.450;19.128;2024-03-08T14:10:37;32.45;;;14.77;;
75732;SDS011;73508;47.450;19.128;2024-03-08T14:13:03;31.33;;;15.10;;
75732;SDS011;73508;47.450;19.128;2024-03-08T14:15:30;31.60;;;14.50;;
75732;SDS011;73508;47.450;19.128;2024-03-08T14:17:56;27.48;;;14.45;;
75732;SDS011;73508;47.450;19.128;2024-03-08T14:20:22;32.60;;;14.40;;